sensor_id;sensor_type;location;lat;lon;timestamp;pressure;altitude;pressure_sealevel;temperature;humidity
8398;BME280;4236;54.504;9.588;2023-04-08T00:02:05;102496.66;;;6.20;100.00
8398;BME280;4236;54.504;9.588;2023-04-08T00:04:33;102497.34;;;6.22;100.00
8398;BME280;4236;54.504;9.588;2023-04-08T00:07:01;102494.44;;;6.25;100.00
8398;BME280;4236;54.504;9.588;2023-04-08T00:09:30;102490.94;;;6.25;100.00
8398;BME280;4236;54.504;9.588;2023-04-08T00:11:57;102498.44;;;6.20;100.00
8398;BME280;4236;54.504;9.588;2023-04-08T00:14:26;102493.53;;;6.15;100.00
8398;BME280;4236;54.504;9.588;2023-04-08T00:16:54;102500.38;;;6.18;100.00
8398;BME280;4236;54.504;9.588;2023-04-08T00:19:22;102499.03;;;6.23;100.00
8398;BME280;4236;54.504;9.588;2023-04-08T00:21:50;102499.75;;;6.25;100.00
8398;BME280;4236;54.504;9.588;2023-04-08T00:24:18;102503.69;;;6.31;100.00
8398;BME280;4236;54.504;9.588;2023-04-08T00:26:47;102491.78;;;6.25;100.00
8398;BME280;4236;54.504;9.588;2023-04-08T00:29:15;102490.50;;;6.20;100.00
8398;BME280;4236;54.504;9.588;2023-04-08T00:31:42;102488.94;;;6.17;100.00
8398;BME280;4236;54.504;9.588;2023-04-08T00:34:10;102490.13;;;6.24;100.00
8398;BME280;4236;54.504;9.588;2023-04-08T00:36:37;102488.19;;;6.26;100.00
8398;BME280;4236;54.504;9.588;2023-04-08T00:39:05;102479.31;;;6.16;100.00
8398;BME280;4236;54.504;9.588;2023-04-08T00:41:33;102481.69;;;6.19;100.00
8398;BME280;4236;54.504;9.588;2023-04-08T00:44:03;102486.63;;;6.24;100.00
8398;BME280;4236;54.504;9.588;2023-04-08T00:46:34;102483.00;;;6.25;100.00
8398;BME280;4236;54.504;9.588;2023-04-08T00:49:02;102483.41;;;6.20;100.00
8398;BME280;4236;54.504;9.588;2023-04-08T00:51:30;102478.34;;;6.17;100.00
8398;BME280;4236;54.504;9.588;2023-04-08T00:53:58;102483.41;;;6.20;100.00
8398;BME280;4236;54.504;9.588;2023-04-08T00:56:26;102487.00;;;6.19;100.00
8398;BME280;4236;54.504;9.588;2023-04-08T00:58:54;102482.09;;;6.15;100.00
8398;BME280;4236;54.504;9.588;2023-04-08T01:01:30;102469.09;;;6.11;100.00
8398;BME280;4236;54.504;9.588;2023-04-08T01:04:06;102478.22;;;6.19;100.00
8398;BME280;4236;54.504;9.588;2023-04-08T01:06:40;102483.91;;;6.14;100.00
8398;BME280;4236;54.504;9.588;2023-04-08T01:09:12;102490.41;;;6.10;100.00
8398;BME280;4236;54.504;9.588;2023-04-08T01:11:42;102492.19;;;6.09;100.00
8398;BME280;4236;54.504;9.588;2023-04-08T01:14:15;102483.81;;;6.04;100.00
8398;BME280;4236;54.504;9.588;2023-04-08T01:16:45;102487.75;;;6.10;100.00
8398;BME280;4236;54.504;9.588;2023-04-08T01:19:20;102491.94;;;6.12;100.00
8398;BME280;4236;54.504;9.588;2023-04-08T01:21:50;102492.94;;;6.11;100.00
8398;BME280;4236;54.504;9.588;2023-04-08T01:24:25;102481.00;;;6.17;100.00
8398;BME280;4236;54.504;9.588;2023-04-08T01:26:57;102485.19;;;6.20;100.00
8398;BME280;4236;54.504;9.588;2023-04-08T01:29:25;102482.81;;;6.17;100.00
8398;BME280;4236;54.504;9.588;2023-04-08T01:31:54;102495.94;;;6.18;100.00
8398;BME280;4236;54.504;9.588;2023-04-08T01:34:24;102483.06;;;6.13;100.00
8398;BME280;4236;54.504;9.588;2023-04-08T01:36:52;102491.50;;;6.07;100.00
8398;BME280;4236;54.504;9.588;2023-04-08T01:39:24;102488.00;;;6.07;100.00
8398;BME280;4236;54.504;9.588;2023-04-08T01:41:53;102499.69;;;6.04;100.00
8398;BME280;4236;54.504;9.588;2023-04-08T01:44:25;102489.44;;;6.11;100.00
8398;BME280;4236;54.504;9.588;2023-04-08T01:46:53;102490.28;;;6.11;100.00
8398;BME280;4236;54.504;9.588;2023-04-08T01:49:23;102486.66;;;6.12;100.00
8398;BME280;4236;54.504;9.588;2023-04-08T01:51:52;102486.91;;;6.09;100.00
8398;BME280;4236;54.504;9.588;2023-04-08T01:54:21;102491.38;;;6.09;100.00
8398;BME280;4236;54.504;9.588;2023-04-08T01:56:50;102481.00;;;6.17;100.00
8398;BME280;4236;54.504;9.588;2023-04-08T01:59:20;102484.16;;;6.11;100.00
8398;BME280;4236;54.504;9.588;2023-04-08T02:01:51;102482.22;;;6.13;100.00
8398;BME280;4236;54.504;9.588;2023-04-08T02:04:19;102490.88;;;6.15;100.00
8398;BME280;4236;54.504;9.588;2023-04-08T02:06:48;102484.00;;;6.12;100.00
8398;BME280;4236;54.504;9.588;2023-04-08T02:09:16;102488.94;;;6.17;100.00
8398;BME280;4236;54.504;9.588;2023-04-08T02:11:44;102480.28;;;6.15;100.00
8398;BME280;4236;54.504;9.588;2023-04-08T02:14:12;102479.56;;;6.13;100.00
8398;BME280;4236;54.504;9.588;2023-04-08T02:16:43;102483.50;;;6.19;100.00
8398;BME280;4236;54.504;9.588;2023-04-08T02:19:18;102478.22;;;6.19;100.00
8398;BME280;4236;54.504;9.588;2023-04-08T02:21:49;102481.00;;;6.17;100.00
8398;BME280;4236;54.504;9.588;2023-04-08T02:24:19;102490.63;;;6.18;100.00
8398;BME280;4236;54.504;9.588;2023-04-08T02:26:49;102485.19;;;6.20;100.00
8398;BME280;4236;54.504;9.588;2023-04-08T02:29:17;102485.44;;;6.17;100.00
8398;BME280;4236;54.504;9.588;2023-04-08T02:31:46;102492.44;;;6.18;100.00
8398;BME280;4236;54.504;9.588;2023-04-08T02:34:16;102493.84;;;6.22;100.00
8398;BME280;4236;54.504;9.588;2023-04-08T02:36:44;102494.34;;;6.27;100.00
8398;BME280;4236;54.504;9.588;2023-04-08T02:39:13;102494.91;;;6.30;100.00
8398;BME280;4236;54.504;9.588;2023-04-08T02:41:41;102490.94;;;6.25;100.00
8398;BME280;4236;54.504;9.588;2023-04-08T02:44:09;102483.59;;;6.28;100.00
8398;BME280;4236;54.504;9.588;2023-04-08T02:46:36;102495.28;;;6.26;100.00
8398;BME280;4236;54.504;9.588;2023-04-08T02:49:04;102497.34;;;6.22;100.00
8398;BME280;4236;54.504;9.588;2023-04-08T02:51:33;102489.28;;;6.24;100.00
8398;BME280;4236;54.504;9.588;2023-04-08T02:54:01;102493.41;;;6.17;100.00
8398;BME280;4236;54.504;9.588;2023-04-08T02:56:28;102497.25;;;6.24;100.00
8398;BME280;4236;54.504;9.588;2023-04-08T02:58:56;102496.13;;;6.26;100.00
8398;BME280;4236;54.504;9.588;2023-04-08T03:01:24;102493.59;;;6.25;100.00
8398;BME280;4236;54.504;9.588;2023-04-08T03:03:51;102504.09;;;6.26;100.00
8398;BME280;4236;54.504;9.588;2023-04-08T03:06:19;102503.88;;;6.18;100.00
8398;BME280;4236;54.504;9.588;2023-04-08T03:08:48;102504.34;;;6.23;100.00
8398;BME280;4236;54.504;9.588;2023-04-08T03:11:17;102506.75;;;6.26;100.00
8398;BME280;4236;54.504;9.588;2023-04-08T03:13:44;102502.28;;;6.27;100.00
8398;BME280;4236;54.504;9.588;2023-04-08T03:16:12;102504.34;;;6.23;100.00
8398;BME280;4236;54.504;9.588;2023-04-08T03:18:40;102505.88;;;6.26;100.00
8398;BME280;4236;54.504;9.588;2023-04-08T03:21:07;102505.88;;;6.26;100.00
8398;BME280;4236;54.504;9.588;2023-04-08T03:23:35;102501.81;;;6.22;100.00
8398;BME280;4236;54.504;9.588;2023-04-08T03:26:04;102499.88;;;6.24;100.00
8398;BME280;4236;54.504;9.588;2023-04-08T03:28:32;102508.53;;;6.26;100.00
8398;BME280;4236;54.504;9.588;2023-04-08T03:30:59;102507.00;;;6.23;100.00
8398;BME280;4236;54.504;9.588;2023-04-08T03:33:27;102500.00;;;6.22;100.00
8398;BME280;4236;54.504;9.588;2023-04-08T03:35:55;102510.84;;;6.19;100.00
8398;BME280;4236;54.504;9.588;2023-04-08T03:38:22;102510.50;;;6.12;100.00
8398;BME280;4236;54.504;9.588;2023-04-08T03:40:50;102501.84;;;6.10;100.00
8398;BME280;4236;54.504;9.588;2023-04-08T03:43:19;102507.38;;;6.07;100.00
8398;BME280;4236;54.504;9.588;2023-04-08T03:45:47;102499.09;;;6.12;100.00
8398;BME280;4236;54.504;9.588;2023-04-08T03:48:15;102511.22;;;6.15;100.00
8398;BME280;4236;54.504;9.588;2023-04-08T03:50:43;102514.13;;;6.11;100.00
8398;BME280;4236;54.504;9.588;2023-04-08T03:53:10;102510.25;;;6.16;100.00
8398;BME280;4236;54.504;9.588;2023-04-08T03:55:38;102508.00;;;6.11;100.00
8398;BME280;4236;54.504;9.588;2023-04-08T03:58:06;102517.72;;;6.10;100.00
8398;BME280;4236;54.504;9.588;2023-04-08T04:00:35;102515.94;;;6.11;100.00
8398;BME280;4236;54.504;9.588;2023-04-08T04:03:03;102527.03;;;6.05;100.00
8398;BME280;4236;54.504;9.588;2023-04-08T04:05:31;102532.31;;;6.05;100.00
8398;BME280;4236;54.504;9.588;2023-04-08T04:07:58;102521.34;;;6.09;100.00
8398;BME280;4236;54.504;9.588;2023-04-08T04:10:26;102526.88;;;6.06;100.00
8398;BME280;4236;54.504;9.588;2023-04-08T04:12:54;102519.94;;;6.05;100.00
8398;BME280;4236;54.504;9.588;2023-04-08T04:15:22;102530.88;;;6.01;100.00
8398;BME280;4236;54.504;9.588;2023-04-08T04:17:51;102532.56;;;6.02;100.00
8398;BME280;4236;54.504;9.588;2023-04-08T04:20:18;102522.69;;;6.04;100.00
8398;BME280;4236;54.504;9.588;2023-04-08T04:22:47;102520.41;;;5.99;100.00
8398;BME280;4236;54.504;9.588;2023-04-08T04:25:15;102526.31;;;6.03;100.00
8398;BME280;4236;54.504;9.588;2023-04-08T04:27:42;102536.16;;;6.01;100.00
8398;BME280;4236;54.504;9.588;2023-04-08T04:30:10;102548.81;;;5.97;100.00
8398;BME280;4236;54.504;9.588;2023-04-08T04:32:40;102534.63;;;5.98;100.00
8398;BME280;4236;54.504;9.588;2023-04-08T04:35:10;102529.47;;;5.97;100.00
8398;BME280;4236;54.504;9.588;2023-04-08T04:37:38;102545.44;;;5.95;100.00
8398;BME280;4236;54.504;9.588;2023-04-08T04:40:06;102535.00;;;5.94;100.00
8398;BME280;4236;54.504;9.588;2023-04-08T04:42:34;102541.34;;;5.91;100.00
8398;BME280;4236;54.504;9.588;2023-04-08T04:45:02;102546.28;;;5.96;100.00
8398;BME280;4236;54.504;9.588;2023-04-08T04:47:30;102547.00;;;5.98;100.00
8398;BME280;4236;54.504;9.588;2023-04-08T04:49:58;102543.41;;;5.99;100.00
8398;BME280;4236;54.504;9.588;2023-04-08T04:52:28;102556.16;;;6.05;100.00
8398;BME280;4236;54.504;9.588;2023-04-08T04:54:56;102557.25;;;6.02;100.00
8398;BME280;4236;54.504;9.588;2023-04-08T04:57:23;102551.69;;;6.05;100.00
8398;BME280;4236;54.504;9.588;2023-04-08T04:59:52;102552.66;;;6.04;100.00
8398;BME280;4236;54.504;9.588;2023-04-08T05:02:19;102560.75;;;6.03;100.00
8398;BME280;4236;54.504;9.588;2023-04-08T05:04:47;102566.59;;;6.06;100.00
8398;BME280;4236;54.504;9.588;2023-04-08T05:07:15;102564.81;;;6.07;100.00
8398;BME280;4236;54.504;9.588;2023-04-08T05:09:44;102559.28;;;6.10;100.00
8398;BME280;4236;54.504;9.588;2023-04-08T05:12:12;102567.47;;;6.18;100.00
8398;BME280;4236;54.504;9.588;2023-04-08T05:14:39;102571.06;;;6.17;100.00
8398;BME280;4236;54.504;9.588;2023-04-08T05:17:07;102569.13;;;6.19;100.00
8398;BME280;4236;54.504;9.588;2023-04-08T05:19:35;102569.25;;;6.18;100.00
8398;BME280;4236;54.504;9.588;2023-04-08T05:22:02;102579.97;;;6.16;100.00
8398;BME280;4236;54.504;9.588;2023-04-08T05:24:30;102577.44;;;6.15;100.00
8398;BME280;4236;54.504;9.588;2023-04-08T05:26:59;102584.66;;;6.12;100.00
8398;BME280;4236;54.504;9.588;2023-04-08T05:29:28;102579.50;;;6.11;100.00
8398;BME280;4236;54.504;9.588;2023-04-08T05:31:55;102579.75;;;6.08;100.00
8398;BME280;4236;54.504;9.588;2023-04-08T05:34:23;102577.94;;;6.08;100.00
8398;BME280;4236;54.504;9.588;2023-04-08T05:36:51;102586.34;;;6.13;100.00
8398;BME280;4236;54.504;9.588;2023-04-08T05:39:19;102585.16;;;6.18;100.00
8398;BME280;4236;54.504;9.588;2023-04-08T05:41:46;102591.75;;;6.23;100.00
8398;BME280;4236;54.504;9.588;2023-04-08T05:44:15;102586.75;;;6.09;100.00
8398;BME280;4236;54.504;9.588;2023-04-08T05:46:44;102579.59;;;6.09;100.00
8398;BME280;4236;54.504;9.588;2023-04-08T05:49:11;102595.41;;;6.11;100.00
8398;BME280;4236;54.504;9.588;2023-04-08T05:51:39;102599.75;;;6.12;100.00
8398;BME280;4236;54.504;9.588;2023-04-08T05:54:07;102597.19;;;6.10;100.00
8398;BME280;4236;54.504;9.588;2023-04-08T05:56:34;102590.81;;;6.13;100.00
8398;BME280;4236;54.504;9.588;2023-04-08T05:59:02;102601.66;;;6.10;100.00
8398;BME280;4236;54.504;9.588;2023-04-08T06:01:31;102597.34;;;6.09;100.00
8398;BME280;4236;54.504;9.588;2023-04-08T06:03:59;102608.25;;;6.16;100.00
8398;BME280;4236;54.504;9.588;2023-04-08T06:06:27;102607.19;;;6.18;100.00
8398;BME280;4236;54.504;9.588;2023-04-08T06:08:55;102609.72;;;6.20;100.00
8398;BME280;4236;54.504;9.588;2023-04-08T06:11:22;102615.97;;;6.19;100.00
8398;BME280;4236;54.504;9.588;2023-04-08T06:13:50;102623.34;;;6.15;100.00
8398;BME280;4236;54.504;9.588;2023-04-08T06:16:18;102626.09;;;6.02;100.00
8398;BME280;4236;54.504;9.588;2023-04-08T06:18:48;102616.38;;;6.03;100.00
8398;BME280;4236;54.504;9.588;2023-04-08T06:21:16;102619.13;;;6.01;100.00
8398;BME280;4236;54.504;9.588;2023-04-08T06:23:43;102632.25;;;6.03;100.00
8398;BME280;4236;54.504;9.588;2023-04-08T06:26:11;102621.66;;;6.03;100.00
8398;BME280;4236;54.504;9.588;2023-04-08T06:28:39;102619.44;;;6.19;100.00
8398;BME280;4236;54.504;9.588;2023-04-08T06:31:07;102628.16;;;6.21;100.00
8398;BME280;4236;54.504;9.588;2023-04-08T06:33:35;102626.31;;;6.33;100.00
8398;BME280;4236;54.504;9.588;2023-04-08T06:36:05;102623.25;;;6.59;100.00
8398;BME280;4236;54.504;9.588;2023-04-08T06:38:33;102628.75;;;6.67;100.00
8398;BME280;4236;54.504;9.588;2023-04-08T06:41:01;102632.09;;;6.69;100.00
8398;BME280;4236;54.504;9.588;2023-04-08T06:43:30;102623.28;;;6.80;100.00
8398;BME280;4236;54.504;9.588;2023-04-08T06:45:57;102624.69;;;6.84;100.00
8398;BME280;4236;54.504;9.588;2023-04-08T06:48:25;102630.69;;;6.97;100.00
8398;BME280;4236;54.504;9.588;2023-04-08T06:50:55;102630.69;;;7.18;100.00
8398;BME280;4236;54.504;9.588;2023-04-08T06:53:25;102638.75;;;7.28;100.00
8398;BME280;4236;54.504;9.588;2023-04-08T06:55:54;102639.69;;;7.27;100.00
8398;BME280;4236;54.504;9.588;2023-04-08T06:58:22;102642.88;;;7.41;100.00
8398;BME280;4236;54.504;9.588;2023-04-08T07:00:50;102653.22;;;7.44;100.00
8398;BME280;4236;54.504;9.588;2023-04-08T07:03:17;102647.59;;;7.58;100.00
8398;BME280;4236;54.504;9.588;2023-04-08T07:05:46;102657.81;;;7.63;100.00
8398;BME280;4236;54.504;9.588;2023-04-08T07:08:14;102656.78;;;7.75;100.00
8398;BME280;4236;54.504;9.588;2023-04-08T07:10:43;102656.13;;;7.62;100.00
8398;BME280;4236;54.504;9.588;2023-04-08T07:13:11;102651.59;;;7.73;100.00
8398;BME280;4236;54.504;9.588;2023-04-08T07:15:39;102654.91;;;7.66;100.00
8398;BME280;4236;54.504;9.588;2023-04-08T07:18:07;102661.69;;;7.79;100.00
8398;BME280;4236;54.504;9.588;2023-04-08T07:20:34;102662.53;;;7.80;100.00
8398;BME280;4236;54.504;9.588;2023-04-08T07:23:04;102656.09;;;7.82;100.00
8398;BME280;4236;54.504;9.588;2023-04-08T07:25:32;102659.75;;;7.82;100.00
8398;BME280;4236;54.504;9.588;2023-04-08T07:28:01;102658.47;;;7.76;100.00
8398;BME280;4236;54.504;9.588;2023-04-08T07:30:29;102667.34;;;7.96;100.00
8398;BME280;4236;54.504;9.588;2023-04-08T07:32:57;102657.91;;;8.03;100.00
8398;BME280;4236;54.504;9.588;2023-04-08T07:35:27;102668.00;;;8.18;100.00
8398;BME280;4236;54.504;9.588;2023-04-08T07:37:54;102668.31;;;8.25;100.00
8398;BME280;4236;54.504;9.588;2023-04-08T07:40:23;102657.47;;;8.38;100.00
8398;BME280;4236;54.504;9.588;2023-04-08T07:42:50;102669.97;;;8.47;100.00
8398;BME280;4236;54.504;9.588;2023-04-08T07:45:19;102670.25;;;8.53;100.00
8398;BME280;4236;54.504;9.588;2023-04-08T07:47:47;102662.84;;;8.57;100.00
8398;BME280;4236;54.504;9.588;2023-04-08T07:50:15;102666.75;;;8.53;100.00
8398;BME280;4236;54.504;9.588;2023-04-08T07:52:42;102665.66;;;8.65;100.00
8398;BME280;4236;54.504;9.588;2023-04-08T07:55:10;102671.84;;;8.75;100.00
8398;BME280;4236;54.504;9.588;2023-04-08T07:57:38;102666.81;;;8.72;100.00
8398;BME280;4236;54.504;9.588;2023-04-08T08:00:07;102667.25;;;8.86;100.00
8398;BME280;4236;54.504;9.588;2023-04-08T08:02:36;102664.72;;;8.85;100.00
8398;BME280;4236;54.504;9.588;2023-04-08T08:05:04;102670.16;;;8.93;100.00
8398;BME280;4236;54.504;9.588;2023-04-08T08:07:33;102675.75;;;8.90;100.00
8398;BME280;4236;54.504;9.588;2023-04-08T08:10:01;102668.09;;;9.06;100.00
8398;BME280;4236;54.504;9.588;2023-04-08T08:12:28;102676.34;;;9.13;100.00
8398;BME280;4236;54.504;9.588;2023-04-08T08:14:56;102680.84;;;9.12;100.00
8398;BME280;4236;54.504;9.588;2023-04-08T08:17:24;102682.06;;;9.08;100.00
8398;BME280;4236;54.504;9.588;2023-04-08T08:19:56;102673.81;;;8.92;100.00
8398;BME280;4236;54.504;9.588;2023-04-08T08:22:24;102676.03;;;8.87;100.00
8398;BME280;4236;54.504;9.588;2023-04-08T08:24:54;102688.38;;;8.88;100.00
8398;BME280;4236;54.504;9.588;2023-04-08T08:27:23;102678.72;;;9.06;100.00
8398;BME280;4236;54.504;9.588;2023-04-08T08:29:51;102685.88;;;9.25;100.00
8398;BME280;4236;54.504;9.588;2023-04-08T08:32:18;102685.97;;;9.62;100.00
8398;BME280;4236;54.504;9.588;2023-04-08T08:34:46;102677.63;;;9.93;100.00
8398;BME280;4236;54.504;9.588;2023-04-08T08:37:15;102684.66;;;9.85;100.00
8398;BME280;4236;54.504;9.588;2023-04-08T08:39:43;102678.78;;;9.81;100.00
8398;BME280;4236;54.504;9.588;2023-04-08T08:42:18;102691.16;;;9.73;100.00
8398;BME280;4236;54.504;9.588;2023-04-08T08:44:47;102690.56;;;9.79;100.00
8398;BME280;4236;54.504;9.588;2023-04-08T08:47:14;102701.13;;;9.61;100.00
8398;BME280;4236;54.504;9.588;2023-04-08T08:49:42;102695.19;;;9.77;100.00
8398;BME280;4236;54.504;9.588;2023-04-08T08:52:15;102691.59;;;9.59;100.00
8398;BME280;4236;54.504;9.588;2023-04-08T08:54:44;102700.97;;;9.63;100.00
8398;BME280;4236;54.504;9.588;2023-04-08T08:57:16;102696.47;;;9.73;100.00
8398;BME280;4236;54.504;9.588;2023-04-08T08:59:45;102693.53;;;9.66;100.00
8398;BME280;4236;54.504;9.588;2023-04-08T09:02:23;102698.13;;;9.83;100.00
8398;BME280;4236;54.504;9.588;2023-04-08T09:04:57;102694.09;;;9.70;100.00
8398;BME280;4236;54.504;9.588;2023-04-08T09:07:28;102704.88;;;9.78;100.00
8398;BME280;4236;54.504;9.588;2023-04-08T09:09:57;102691.72;;;9.76;100.00
8398;BME280;4236;54.504;9.588;2023-04-08T09:12:26;102701.34;;;9.77;100.00
8398;BME280;4236;54.504;9.588;2023-04-08T09:15:03;102697.44;;;9.81;100.00
8398;BME280;4236;54.504;9.588;2023-04-08T09:17:31;102710.47;;;9.75;100.00
8398;BME280;4236;54.504;9.588;2023-04-08T09:20:04;102702.75;;;9.91;100.00
8398;BME280;4236;54.504;9.588;2023-04-08T09:22:54;102705.06;;;10.13;100.00
8398;BME280;4236;54.504;9.588;2023-04-08T09:25:22;102698.56;;;10.25;100.00
8398;BME280;4236;54.504;9.588;2023-04-08T09:27:51;102701.66;;;10.30;100.00
8398;BME280;4236;54.504;9.588;2023-04-08T09:30:21;102721.28;;;10.29;100.00
8398;BME280;4236;54.504;9.588;2023-04-08T09:32:51;102718.81;;;10.09;100.00
8398;BME280;4236;54.504;9.588;2023-04-08T09:35:19;102717.69;;;10.21;100.00
8398;BME280;4236;54.504;9.588;2023-04-08T09:37:49;102731.50;;;10.34;100.00
8398;BME280;4236;54.504;9.588;2023-04-08T09:40:17;102715.22;;;10.37;100.00
8398;BME280;4236;54.504;9.588;2023-04-08T09:42:47;102723.78;;;10.40;100.00
8398;BME280;4236;54.504;9.588;2023-04-08T09:45:17;102724.25;;;10.26;100.00
8398;BME280;4236;54.504;9.588;2023-04-08T09:48:04;102729.19;;;10.21;100.00
8398;BME280;4236;54.504;9.588;2023-04-08T09:50:42;102726.09;;;10.16;100.00
8398;BME280;4236;54.504;9.588;2023-04-08T09:53:13;102735.94;;;10.06;100.00
8398;BME280;4236;54.504;9.588;2023-04-08T09:55:42;102731.03;;;10.01;100.00
8398;BME280;4236;54.504;9.588;2023-04-08T09:58:15;102737.63;;;10.17;100.00
8398;BME280;4236;54.504;9.588;2023-04-08T10:00:46;102735.09;;;10.06;100.00
8398;BME280;4236;54.504;9.588;2023-04-08T10:03:26;102742.47;;;10.31;100.00
8398;BME280;4236;54.504;9.588;2023-04-08T10:05:57;102746.38;;;10.36;100.00
8398;BME280;4236;54.504;9.588;2023-04-08T10:08:29;102745.97;;;10.31;100.00
8398;BME280;4236;54.504;9.588;2023-04-08T10:10:58;102741.06;;;10.64;100.00
8398;BME280;4236;54.504;9.588;2023-04-08T10:13:26;102737.44;;;10.55;100.00
8398;BME280;4236;54.504;9.588;2023-04-08T10:16:22;102743.72;;;10.64;100.00
8398;BME280;4236;54.504;9.588;2023-04-08T10:18:51;102731.72;;;10.77;100.00
8398;BME280;4236;54.504;9.588;2023-04-08T10:21:31;102740.22;;;11.08;100.00
8398;BME280;4236;54.504;9.588;2023-04-08T10:24:00;102727.50;;;11.02;100.00
8398;BME280;4236;54.504;9.588;2023-04-08T10:26:34;102732.13;;;11.18;100.00
8398;BME280;4236;54.504;9.588;2023-04-08T10:32:26;102724.28;;;10.81;100.00
8398;BME280;4236;54.504;9.588;2023-04-08T10:34:55;102721.72;;;10.79;100.00
8398;BME280;4236;54.504;9.588;2023-04-08T10:37:23;102724.53;;;11.05;100.00
8398;BME280;4236;54.504;9.588;2023-04-08T10:39:54;102729.31;;;11.01;100.00
8398;BME280;4236;54.504;9.588;2023-04-08T10:42:26;102720.09;;;11.14;100.00
8398;BME280;4236;54.504;9.588;2023-04-08T10:44:59;102713.38;;;11.27;100.00
8398;BME280;4236;54.504;9.588;2023-04-08T10:47:26;102721.53;;;11.08;100.00
8398;BME280;4236;54.504;9.588;2023-04-08T10:49:55;102718.56;;;11.11;100.00
8398;BME280;4236;54.504;9.588;2023-04-08T10:52:23;102715.88;;;10.93;100.00
8398;BME280;4236;54.504;9.588;2023-04-08T10:54:54;102724.06;;;11.09;100.00
8398;BME280;4236;54.504;9.588;2023-04-08T10:57:25;102723.22;;;11.27;100.00
8398;BME280;4236;54.504;9.588;2023-04-08T10:59:52;102723.22;;;11.27;100.00
8398;BME280;4236;54.504;9.588;2023-04-08T11:02:20;102720.78;;;11.33;100.00
8398;BME280;4236;54.504;9.588;2023-04-08T11:04:48;102717.63;;;11.55;100.00
8398;BME280;4236;54.504;9.588;2023-04-08T11:07:19;102710.59;;;11.54;100.00
8398;BME280;4236;54.504;9.588;2023-04-08T11:09:47;102722.06;;;11.64;100.00
8398;BME280;4236;54.504;9.588;2023-04-08T11:12:17;102722.72;;;11.84;100.00
8398;BME280;4236;54.504;9.588;2023-04-08T11:14:45;102711.84;;;11.86;100.00
8398;BME280;4236;54.504;9.588;2023-04-08T11:17:15;102710.28;;;12.01;100.00
8398;BME280;4236;54.504;9.588;2023-04-08T11:19:43;102716.16;;;12.30;100.00
8398;BME280;4236;54.504;9.588;2023-04-08T11:22:11;102709.72;;;12.15;100.00
8398;BME280;4236;54.504;9.588;2023-04-08T11:24:39;102718.28;;;12.01;100.00
8398;BME280;4236;54.504;9.588;2023-04-08T11:27:07;102703.91;;;12.28;100.00
8398;BME280;4236;54.504;9.588;2023-04-08T11:29:37;102716.06;;;11.88;100.00
8398;BME280;4236;54.504;9.588;2023-04-08T11:32:05;102715.06;;;11.89;100.00
8398;BME280;4236;54.504;9.588;2023-04-08T11:34:38;102716.31;;;11.77;100.00
8398;BME280;4236;54.504;9.588;2023-04-08T11:37:05;102715.00;;;11.81;100.00
8398;BME280;4236;54.504;9.588;2023-04-08T11:39:33;102712.94;;;12.01;100.00
8398;BME280;4236;54.504;9.588;2023-04-08T11:42:01;102714.31;;;12.05;100.00
8398;BME280;4236;54.504;9.588;2023-04-08T11:44:30;102713.97;;;12.00;100.00
8398;BME280;4236;54.504;9.588;2023-04-08T11:47:00;102717.66;;;12.07;100.00
8398;BME280;4236;54.504;9.588;2023-04-08T11:49:42;102714.44;;;11.95;100.00
8398;BME280;4236;54.504;9.588;2023-04-08T11:52:10;102714.81;;;12.00;100.00
8398;BME280;4236;54.504;9.588;2023-04-08T11:54:40;102712.72;;;12.12;100.00
8398;BME280;4236;54.504;9.588;2023-04-08T11:57:08;102702.88;;;12.20;100.00
8398;BME280;4236;54.504;9.588;2023-04-08T11:59:36;102710.56;;;12.15;100.00
8398;BME280;4236;54.504;9.588;2023-04-08T12:02:05;102723.25;;;11.88;100.00
8398;BME280;4236;54.504;9.588;2023-04-08T12:04:33;102710.97;;;12.03;100.00
8398;BME280;4236;54.504;9.588;2023-04-08T12:07:01;102717.81;;;11.97;100.00
8398;BME280;4236;54.504;9.588;2023-04-08T12:09:29;102718.97;;;11.77;100.00
8398;BME280;4236;54.504;9.588;2023-04-08T12:11:57;102721.34;;;11.80;100.00
8398;BME280;4236;54.504;9.588;2023-04-08T12:14:24;102725.22;;;11.68;100.00
8398;BME280;4236;54.504;9.588;2023-04-08T12:16:54;102737.16;;;11.56;100.00
8398;BME280;4236;54.504;9.588;2023-04-08T12:19:23;102732.56;;;11.84;100.00
8398;BME280;4236;54.504;9.588;2023-04-08T12:21:51;102733.19;;;11.78;100.00
8398;BME280;4236;54.504;9.588;2023-04-08T12:24:18;102725.88;;;11.80;100.00
8398;BME280;4236;54.504;9.588;2023-04-08T12:26:46;102729.69;;;12.03;100.00
8398;BME280;4236;54.504;9.588;2023-04-08T12:29:14;102725.03;;;12.05;100.00
8398;BME280;4236;54.504;9.588;2023-04-08T12:31:41;102726.28;;;11.93;100.00
8398;BME280;4236;54.504;9.588;2023-04-08T12:34:09;102727.59;;;12.14;100.00
8398;BME280;4236;54.504;9.588;2023-04-08T12:36:38;102731.22;;;12.05;100.00
8398;BME280;4236;54.504;9.588;2023-04-08T12:39:07;102736.66;;;11.70;100.00
8398;BME280;4236;54.504;9.588;2023-04-08T12:41:35;102730.75;;;11.66;100.00
8398;BME280;4236;54.504;9.588;2023-04-08T12:44:02;102729.53;;;11.61;100.00
8398;BME280;4236;54.504;9.588;2023-04-08T12:46:30;102732.63;;;11.92;100.00
8398;BME280;4236;54.504;9.588;2023-04-08T12:48:58;102730.47;;;11.95;100.00
8398;BME280;4236;54.504;9.588;2023-04-08T12:51:30;102734.25;;;11.67;100.00
8398;BME280;4236;54.504;9.588;2023-04-08T12:54:00;102726.81;;;11.71;100.00
8398;BME280;4236;54.504;9.588;2023-04-08T12:56:28;102733.72;;;11.63;100.00
8398;BME280;4236;54.504;9.588;2023-04-08T12:58:57;102731.41;;;11.68;100.00
8398;BME280;4236;54.504;9.588;2023-04-08T13:01:24;102728.38;;;11.81;100.00
8398;BME280;4236;54.504;9.588;2023-04-08T13:03:52;102735.25;;;11.84;100.00
8398;BME280;4236;54.504;9.588;2023-04-08T13:06:21;102737.56;;;11.79;100.00
8398;BME280;4236;54.504;9.588;2023-04-08T13:08:48;102735.56;;;11.81;100.00
8398;BME280;4236;54.504;9.588;2023-04-08T13:11:18;102732.97;;;11.71;100.00
8398;BME280;4236;54.504;9.588;2023-04-08T13:13:46;102733.84;;;11.97;100.00
8398;BME280;4236;54.504;9.588;2023-04-08T13:16:14;102727.66;;;11.97;100.00
8398;BME280;4236;54.504;9.588;2023-04-08T13:18:42;102720.50;;;12.05;100.00
8398;BME280;4236;54.504;9.588;2023-04-08T13:21:09;102729.53;;;12.04;100.00